sensor_id;sensor_type;location;lat;lon;timestamp;P1;durP1;ratioP1;P2;durP2;ratioP2
59145;SDS011;44928;53.074;6.646;2022-07-10T00:00:31;9.45;;;1.48;;
59145;SDS011;44928;53.074;6.646;2022-07-10T00:02:57;6.70;;;1.50;;
59145;SDS011;44928;53.074;6.646;2022-07-10T00:05:23;9.55;;;1.60;;
59145;SDS011;44928;53.074;6.646;2022-07-10T00:07:49;7.20;;;1.33;;
59145;SDS011;44928;53.074;6.646;2022-07-10T00:10:19;7.47;;;1.50;;
59145;SDS011;44928;53.074;6.646;2022-07-10T00:12:46;8.38;;;1.58;;
59145;SDS011;44928;53.074;6.646;2022-07-10T00:15:13;8.15;;;1.75;;
59145;SDS011;44928;53.074;6.646;2022-07-10T00:17:40;10.73;;;1.65;;
59145;SDS011;44928;53.074;6.646;2022-07-10T00:20:07;9.25;;;1.50;;
59145;SDS011;44928;53.074;6.646;2022-07-10T00:22:34;8.68;;;1.85;;
59145;SDS011;44928;53.074;6.646;2022-07-10T00:25:06;7.50;;;1.23;;
59145;SDS011;44928;53.074;6.646;2022-07-10T00:27:35;8.57;;;1.50;;
59145;SDS011;44928;53.074;6.646;2022-07-10T00:30:00;6.20;;;1.60;;
59145;SDS011;44928;53.074;6.646;2022-07-10T00:32:26;8.82;;;1.27;;
59145;SDS011;44928;53.074;6.646;2022-07-10T00:34:52;6.22;;;0.98;;
59145;SDS011;44928;53.074;6.646;2022-07-10T00:37:18;10.25;;;1.50;;
59145;SDS011;44928;53.074;6.646;2022-07-10T00:39:46;9.38;;;1.83;;
59145;SDS011;44928;53.074;6.646;2022-07-10T00:42:13;4.75;;;1.35;;
59145;SDS011;44928;53.074;6.646;2022-07-10T00:44:40;7.25;;;1.35;;
59145;SDS011;44928;53.074;6.646;2022-07-10T00:47:07;5.97;;;1.20;;
59145;SDS011;44928;53.074;6.646;2022-07-10T00:49:35;9.15;;;1.23;;
59145;SDS011;44928;53.074;6.646;2022-07-10T00:52:03;7.82;;;1.30;;
59145;SDS011;44928;53.074;6.646;2022-07-10T00:54:32;9.07;;;1.30;;
59145;SDS011;44928;53.074;6.646;2022-07-10T00:56:59;9.20;;;1.52;;
59145;SDS011;44928;53.074;6.646;2022-07-10T00:59:26;8.18;;;1.60;;
59145;SDS011;44928;53.074;6.646;2022-07-10T01:01:53;8.73;;;1.60;;
59145;SDS011;44928;53.074;6.646;2022-07-10T01:04:19;7.22;;;1.33;;
59145;SDS011;44928;53.074;6.646;2022-07-10T01:06:45;6.15;;;1.23;;
59145;SDS011;44928;53.074;6.646;2022-07-10T01:09:11;7.32;;;1.30;;
59145;SDS011;44928;53.074;6.646;2022-07-10T01:11:37;9.38;;;1.33;;
59145;SDS011;44928;53.074;6.646;2022-07-10T01:14:03;10.73;;;1.98;;
59145;SDS011;44928;53.074;6.646;2022-07-10T01:16:32;9.75;;;1.27;;
59145;SDS011;44928;53.074;6.646;2022-07-10T01:18:59;8.18;;;1.30;;
59145;SDS011;44928;53.074;6.646;2022-07-10T01:21:25;8.43;;;1.35;;
59145;SDS011;44928;53.074;6.646;2022-07-10T01:23:56;6.28;;;1.45;;
59145;SDS011;44928;53.074;6.646;2022-07-10T01:26:22;8.88;;;1.80;;
59145;SDS011;44928;53.074;6.646;2022-07-10T01:28:49;6.13;;;1.05;;
59145;SDS011;44928;53.074;6.646;2022-07-10T01:31:34;6.55;;;1.23;;
59145;SDS011;44928;53.074;6.646;2022-07-10T01:34:00;7.50;;;1.13;;
59145;SDS011;44928;53.074;6.646;2022-07-10T01:36:29;8.60;;;1.60;;
59145;SDS011;44928;53.074;6.646;2022-07-10T01:38:55;6.78;;;1.63;;
59145;SDS011;44928;53.074;6.646;2022-07-10T01:41:22;10.32;;;1.35;;
59145;SDS011;44928;53.074;6.646;2022-07-10T01:43:48;12.82;;;2.17;;
59145;SDS011;44928;53.074;6.646;2022-07-10T01:46:15;13.73;;;1.75;;
59145;SDS011;44928;53.074;6.646;2022-07-10T01:48:41;7.05;;;1.42;;
59145;SDS011;44928;53.074;6.646;2022-07-10T01:51:07;9.02;;;1.67;;
59145;SDS011;44928;53.074;6.646;2022-07-10T01:53:36;8.80;;;1.42;;
59145;SDS011;44928;53.074;6.646;2022-07-10T01:56:03;7.75;;;1.20;;
59145;SDS011;44928;53.074;6.646;2022-07-10T01:58:33;9.73;;;1.70;;
59145;SDS011;44928;53.074;6.646;2022-07-10T02:01:00;10.27;;;1.85;;
59145;SDS011;44928;53.074;6.646;2022-07-10T02:03:26;10.00;;;1.60;;
59145;SDS011;44928;53.074;6.646;2022-07-10T02:06:11;9.80;;;1.60;;
59145;SDS011;44928;53.074;6.646;2022-07-10T02:08:36;8.10;;;1.52;;
59145;SDS011;44928;53.074;6.646;2022-07-10T02:11:02;9.60;;;1.27;;
59145;SDS011;44928;53.074;6.646;2022-07-10T02:13:28;8.00;;;1.38;;
59145;SDS011;44928;53.074;6.646;2022-07-10T02:15:54;8.50;;;1.65;;
59145;SDS011;44928;53.074;6.646;2022-07-10T02:18:21;9.68;;;1.33;;
59145;SDS011;44928;53.074;6.646;2022-07-10T02:20:46;8.20;;;1.40;;
59145;SDS011;44928;53.074;6.646;2022-07-10T02:23:12;6.45;;;1.10;;
59145;SDS011;44928;53.074;6.646;2022-07-10T02:25:38;5.65;;;1.20;;
59145;SDS011;44928;53.074;6.646;2022-07-10T02:28:04;5.53;;;1.05;;
59145;SDS011;44928;53.074;6.646;2022-07-10T02:30:31;9.90;;;1.52;;
59145;SDS011;44928;53.074;6.646;2022-07-10T02:32:57;10.25;;;1.52;;
59145;SDS011;44928;53.074;6.646;2022-07-10T02:35:22;8.77;;;2.25;;
59145;SDS011;44928;53.074;6.646;2022-07-10T02:37:48;6.93;;;1.20;;
59145;SDS011;44928;53.074;6.646;2022-07-10T02:40:14;5.07;;;1.30;;
59145;SDS011;44928;53.074;6.646;2022-07-10T02:42:40;6.85;;;1.10;;
59145;SDS011;44928;53.074;6.646;2022-07-10T02:45:06;6.32;;;1.20;;
59145;SDS011;44928;53.074;6.646;2022-07-10T02:47:32;9.30;;;1.33;;
59145;SDS011;44928;53.074;6.646;2022-07-10T02:49:58;10.45;;;1.20;;
59145;SDS011;44928;53.074;6.646;2022-07-10T02:52:23;6.55;;;1.08;;
59145;SDS011;44928;53.074;6.646;2022-07-10T02:54:49;8.35;;;1.40;;
59145;SDS011;44928;53.074;6.646;2022-07-10T02:57:16;6.70;;;1.08;;
59145;SDS011;44928;53.074;6.646;2022-07-10T02:59:41;9.23;;;1.15;;
59145;SDS011;44928;53.074;6.646;2022-07-10T03:02:07;9.50;;;1.38;;
59145;SDS011;44928;53.074;6.646;2022-07-10T03:04:33;8.80;;;1.67;;
59145;SDS011;44928;53.074;6.646;2022-07-10T03:06:59;4.45;;;1.10;;
59145;SDS011;44928;53.074;6.646;2022-07-10T03:09:24;8.35;;;1.33;;
59145;SDS011;44928;53.074;6.646;2022-07-10T03:11:50;9.70;;;1.48;;
59145;SDS011;44928;53.074;6.646;2022-07-10T03:14:16;7.47;;;1.38;;
59145;SDS011;44928;53.074;6.646;2022-07-10T03:16:42;8.00;;;1.52;;
59145;SDS011;44928;53.074;6.646;2022-07-10T03:19:08;11.25;;;1.23;;
59145;SDS011;44928;53.074;6.646;2022-07-10T03:21:34;9.07;;;1.33;;
59145;SDS011;44928;53.074;6.646;2022-07-10T03:24:00;7.70;;;1.15;;
59145;SDS011;44928;53.074;6.646;2022-07-10T03:26:26;5.88;;;1.02;;
59145;SDS011;44928;53.074;6.646;2022-07-10T03:28:54;6.70;;;1.10;;
59145;SDS011;44928;53.074;6.646;2022-07-10T03:31:20;9.18;;;1.40;;
59145;SDS011;44928;53.074;6.646;2022-07-10T03:33:46;5.40;;;1.30;;
59145;SDS011;44928;53.074;6.646;2022-07-10T03:36:12;11.40;;;1.75;;
59145;SDS011;44928;53.074;6.646;2022-07-10T03:38:40;9.10;;;1.58;;
59145;SDS011;44928;53.074;6.646;2022-07-10T03:41:06;7.32;;;1.42;;
59145;SDS011;44928;53.074;6.646;2022-07-10T03:43:32;6.30;;;1.20;;
59145;SDS011;44928;53.074;6.646;2022-07-10T03:45:57;5.63;;;1.25;;
59145;SDS011;44928;53.074;6.646;2022-07-10T03:48:24;6.50;;;1.10;;
59145;SDS011;44928;53.074;6.646;2022-07-10T03:50:50;9.05;;;1.80;;
59145;SDS011;44928;53.074;6.646;2022-07-10T03:53:17;8.77;;;1.20;;
59145;SDS011;44928;53.074;6.646;2022-07-10T03:55:43;6.00;;;1.23;;
59145;SDS011;44928;53.074;6.646;2022-07-10T03:58:09;13.93;;;2.13;;
59145;SDS011;44928;53.074;6.646;2022-07-10T04:00:35;8.77;;;1.33;;
59145;SDS011;44928;53.074;6.646;2022-07-10T04:03:06;6.85;;;1.30;;
59145;SDS011;44928;53.074;6.646;2022-07-10T04:05:33;11.23;;;1.05;;
59145;SDS011;44928;53.074;6.646;2022-07-10T04:08:00;13.18;;;1.48;;
59145;SDS011;44928;53.074;6.646;2022-07-10T04:10:26;7.53;;;1.23;;
59145;SDS011;44928;53.074;6.646;2022-07-10T04:12:53;7.40;;;1.30;;
59145;SDS011;44928;53.074;6.646;2022-07-10T04:15:19;10.52;;;1.67;;
59145;SDS011;44928;53.074;6.646;2022-07-10T04:17:45;10.32;;;1.75;;
59145;SDS011;44928;53.074;6.646;2022-07-10T04:20:11;7.93;;;1.10;;
59145;SDS011;44928;53.074;6.646;2022-07-10T04:22:36;7.45;;;1.63;;
59145;SDS011;44928;53.074;6.646;2022-07-10T04:25:03;8.23;;;1.95;;
59145;SDS011;44928;53.074;6.646;2022-07-10T04:27:30;8.52;;;1.30;;
59145;SDS011;44928;53.074;6.646;2022-07-10T04:29:56;8.55;;;1.45;;
59145;SDS011;44928;53.074;6.646;2022-07-10T04:32:22;6.82;;;1.38;;
59145;SDS011;44928;53.074;6.646;2022-07-10T04:34:48;8.82;;;1.40;;
59145;SDS011;44928;53.074;6.646;2022-07-10T04:37:13;11.60;;;1.48;;
59145;SDS011;44928;53.074;6.646;2022-07-10T04:39:39;8.50;;;1.60;;
59145;SDS011;44928;53.074;6.646;2022-07-10T04:42:06;9.27;;;1.45;;
59145;SDS011;44928;53.074;6.646;2022-07-10T04:44:33;5.88;;;1.00;;
59145;SDS011;44928;53.074;6.646;2022-07-10T04:46:59;7.00;;;1.52;;
59145;SDS011;44928;53.074;6.646;2022-07-10T04:49:25;11.82;;;1.58;;
59145;SDS011;44928;53.074;6.646;2022-07-10T04:51:51;13.73;;;1.88;;
59145;SDS011;44928;53.074;6.646;2022-07-10T04:54:17;5.05;;;1.40;;
59145;SDS011;44928;53.074;6.646;2022-07-10T04:56:43;9.68;;;1.90;;
59145;SDS011;44928;53.074;6.646;2022-07-10T04:59:09;8.15;;;1.42;;
59145;SDS011;44928;53.074;6.646;2022-07-10T05:01:35;15.25;;;1.88;;
59145;SDS011;44928;53.074;6.646;2022-07-10T05:04:02;9.63;;;1.98;;
59145;SDS011;44928;53.074;6.646;2022-07-10T05:06:28;7.35;;;1.52;;
59145;SDS011;44928;53.074;6.646;2022-07-10T05:08:54;9.82;;;1.50;;
59145;SDS011;44928;53.074;6.646;2022-07-10T05:11:20;8.40;;;1.70;;
59145;SDS011;44928;53.074;6.646;2022-07-10T05:13:46;9.35;;;1.60;;
59145;SDS011;44928;53.074;6.646;2022-07-10T05:16:16;11.15;;;1.80;;
59145;SDS011;44928;53.074;6.646;2022-07-10T05:18:43;9.07;;;2.00;;
59145;SDS011;44928;53.074;6.646;2022-07-10T05:21:09;9.50;;;1.75;;
59145;SDS011;44928;53.074;6.646;2022-07-10T05:23:35;13.40;;;2.33;;
59145;SDS011;44928;53.074;6.646;2022-07-10T05:26:02;11.05;;;2.03;;
59145;SDS011;44928;53.074;6.646;2022-07-10T05:28:28;8.85;;;1.70;;
59145;SDS011;44928;53.074;6.646;2022-07-10T05:30:54;9.60;;;1.67;;
59145;SDS011;44928;53.074;6.646;2022-07-10T05:33:20;10.07;;;1.95;;
59145;SDS011;44928;53.074;6.646;2022-07-10T05:35:46;8.18;;;1.75;;
59145;SDS011;44928;53.074;6.646;2022-07-10T05:38:12;7.25;;;1.50;;
59145;SDS011;44928;53.074;6.646;2022-07-10T05:40:37;8.77;;;1.40;;
59145;SDS011;44928;53.074;6.646;2022-07-10T05:43:03;6.25;;;1.20;;
59145;SDS011;44928;53.074;6.646;2022-07-10T05:45:29;8.13;;;1.33;;
59145;SDS011;44928;53.074;6.646;2022-07-10T05:47:55;9.73;;;1.98;;
59145;SDS011;44928;53.074;6.646;2022-07-10T05:50:21;10.10;;;1.35;;
59145;SDS011;44928;53.074;6.646;2022-07-10T05:52:47;6.60;;;1.48;;
59145;SDS011;44928;53.074;6.646;2022-07-10T05:55:13;8.93;;;1.50;;
59145;SDS011;44928;53.074;6.646;2022-07-10T05:57:39;5.55;;;1.13;;
59145;SDS011;44928;53.074;6.646;2022-07-10T06:00:05;10.23;;;1.50;;
59145;SDS011;44928;53.074;6.646;2022-07-10T06:02:32;9.02;;;1.48;;
59145;SDS011;44928;53.074;6.646;2022-07-10T06:04:58;9.02;;;2.03;;
59145;SDS011;44928;53.074;6.646;2022-07-10T06:07:25;12.45;;;1.90;;
59145;SDS011;44928;53.074;6.646;2022-07-10T06:09:54;8.13;;;1.67;;
59145;SDS011;44928;53.074;6.646;2022-07-10T06:12:20;8.40;;;1.80;;
59145;SDS011;44928;53.074;6.646;2022-07-10T06:14:46;8.70;;;1.50;;
59145;SDS011;44928;53.074;6.646;2022-07-10T06:17:12;7.03;;;1.33;;
59145;SDS011;44928;53.074;6.646;2022-07-10T06:19:38;7.20;;;1.52;;
59145;SDS011;44928;53.074;6.646;2022-07-10T06:22:03;8.90;;;1.33;;
59145;SDS011;44928;53.074;6.646;2022-07-10T06:24:48;10.20;;;1.75;;
59145;SDS011;44928;53.074;6.646;2022-07-10T06:27:14;9.68;;;1.70;;
59145;SDS011;44928;53.074;6.646;2022-07-10T06:29:39;9.90;;;1.85;;
59145;SDS011;44928;53.074;6.646;2022-07-10T06:32:05;8.40;;;1.30;;
59145;SDS011;44928;53.074;6.646;2022-07-10T06:34:31;11.13;;;1.67;;
59145;SDS011;44928;53.074;6.646;2022-07-10T06:36:57;11.20;;;2.42;;
59145;SDS011;44928;53.074;6.646;2022-07-10T06:39:23;9.60;;;1.70;;
59145;SDS011;44928;53.074;6.646;2022-07-10T06:41:49;8.20;;;1.63;;
59145;SDS011;44928;53.074;6.646;2022-07-10T06:44:14;9.93;;;1.52;;
59145;SDS011;44928;53.074;6.646;2022-07-10T06:46:40;11.23;;;2.03;;
59145;SDS011;44928;53.074;6.646;2022-07-10T06:49:06;10.80;;;1.98;;
59145;SDS011;44928;53.074;6.646;2022-07-10T06:51:34;9.27;;;1.33;;
59145;SDS011;44928;53.074;6.646;2022-07-10T06:54:00;7.30;;;1.58;;
59145;SDS011;44928;53.074;6.646;2022-07-10T06:56:25;10.52;;;1.63;;
59145;SDS011;44928;53.074;6.646;2022-07-10T06:58:52;7.35;;;1.60;;
59145;SDS011;44928;53.074;6.646;2022-07-10T07:01:18;7.05;;;1.25;;
59145;SDS011;44928;53.074;6.646;2022-07-10T07:03:43;8.82;;;1.52;;
59145;SDS011;44928;53.074;6.646;2022-07-10T07:06:09;8.93;;;1.50;;
59145;SDS011;44928;53.074;6.646;2022-07-10T07:08:35;6.88;;;1.23;;
59145;SDS011;44928;53.074;6.646;2022-07-10T07:11:01;9.35;;;1.35;;
59145;SDS011;44928;53.074;6.646;2022-07-10T07:13:28;7.03;;;1.70;;
59145;SDS011;44928;53.074;6.646;2022-07-10T07:15:53;5.45;;;1.10;;
59145;SDS011;44928;53.074;6.646;2022-07-10T07:18:25;7.53;;;1.25;;
59145;SDS011;44928;53.074;6.646;2022-07-10T07:20:58;10.27;;;1.65;;
59145;SDS011;44928;53.074;6.646;2022-07-10T07:23:43;5.70;;;1.05;;
59145;SDS011;44928;53.074;6.646;2022-07-10T07:26:08;5.38;;;0.95;;
59145;SDS011;44928;53.074;6.646;2022-07-10T07:28:34;5.90;;;1.25;;
59145;SDS011;44928;53.074;6.646;2022-07-10T07:31:00;6.55;;;1.05;;
59145;SDS011;44928;53.074;6.646;2022-07-10T07:33:25;5.13;;;1.10;;
59145;SDS011;44928;53.074;6.646;2022-07-10T07:35:51;8.40;;;1.23;;
59145;SDS011;44928;53.074;6.646;2022-07-10T07:38:17;6.95;;;1.17;;
59145;SDS011;44928;53.074;6.646;2022-07-10T07:40:42;6.53;;;1.48;;
59145;SDS011;44928;53.074;6.646;2022-07-10T07:43:08;6.70;;;1.27;;
59145;SDS011;44928;53.074;6.646;2022-07-10T07:45:34;5.85;;;1.10;;
59145;SDS011;44928;53.074;6.646;2022-07-10T07:48:00;8.27;;;1.60;;
59145;SDS011;44928;53.074;6.646;2022-07-10T07:50:33;6.40;;;1.00;;
59145;SDS011;44928;53.074;6.646;2022-07-10T07:53:00;8.93;;;1.48;;
59145;SDS011;44928;53.074;6.646;2022-07-10T07:55:27;4.20;;;0.98;;
59145;SDS011;44928;53.074;6.646;2022-07-10T07:57:54;8.88;;;1.30;;
59145;SDS011;44928;53.074;6.646;2022-07-10T08:00:22;7.13;;;1.30;;
59145;SDS011;44928;53.074;6.646;2022-07-10T08:02:51;5.15;;;1.13;;
59145;SDS011;44928;53.074;6.646;2022-07-10T08:05:21;5.47;;;1.27;;
59145;SDS011;44928;53.074;6.646;2022-07-10T08:07:54;6.47;;;0.90;;
59145;SDS011;44928;53.074;6.646;2022-07-10T08:12:48;5.53;;;1.10;;
59145;SDS011;44928;53.074;6.646;2022-07-10T08:15:15;6.72;;;1.00;;
59145;SDS011;44928;53.074;6.646;2022-07-10T08:17:43;6.07;;;1.30;;
59145;SDS011;44928;53.074;6.646;2022-07-10T08:20:13;7.40;;;1.27;;
59145;SDS011;44928;53.074;6.646;2022-07-10T08:22:39;6.65;;;1.30;;
59145;SDS011;44928;53.074;6.646;2022-07-10T08:25:06;9.27;;;1.63;;
59145;SDS011;44928;53.074;6.646;2022-07-10T08:27:32;6.93;;;1.50;;
59145;SDS011;44928;53.074;6.646;2022-07-10T08:29:58;4.82;;;1.13;;
59145;SDS011;44928;53.074;6.646;2022-07-10T08:32:24;5.18;;;1.23;;
59145;SDS011;44928;53.074;6.646;2022-07-10T08:34:51;5.60;;;1.30;;
59145;SDS011;44928;53.074;6.646;2022-07-10T08:37:16;6.35;;;1.30;;
59145;SDS011;44928;53.074;6.646;2022-07-10T08:39:44;6.50;;;1.20;;
59145;SDS011;44928;53.074;6.646;2022-07-10T08:42:10;7.07;;;1.42;;
59145;SDS011;44928;53.074;6.646;2022-07-10T08:44:36;5.18;;;1.08;;
59145;SDS011;44928;53.074;6.646;2022-07-10T08:47:02;6.97;;;1.15;;
59145;SDS011;44928;53.074;6.646;2022-07-10T08:49:30;7.68;;;1.33;;
59145;SDS011;44928;53.074;6.646;2022-07-10T08:51:57;5.70;;;1.30;;
59145;SDS011;44928;53.074;6.646;2022-07-10T08:54:30;5.88;;;1.30;;
59145;SDS011;44928;53.074;6.646;2022-07-10T08:56:57;7.05;;;1.30;;
59145;SDS011;44928;53.074;6.646;2022-07-10T08:59:24;6.68;;;1.02;;
59145;SDS011;44928;53.074;6.646;2022-07-10T09:01:50;6.38;;;1.17;;
59145;SDS011;44928;53.074;6.646;2022-07-10T09:04:16;5.30;;;0.93;;
59145;SDS011;44928;53.074;6.646;2022-07-10T09:06:43;3.75;;;1.00;;
59145;SDS011;44928;53.074;6.646;2022-07-10T09:09:09;4.97;;;1.10;;
59145;SDS011;44928;53.074;6.646;2022-07-10T09:11:37;3.05;;;0.80;;
59145;SDS011;44928;53.074;6.646;2022-07-10T09:14:13;4.88;;;1.00;;
59145;SDS011;44928;53.074;6.646;2022-07-10T09:16:43;4.65;;;0.73;;
59145;SDS011;44928;53.074;6.646;2022-07-10T09:19:21;3.72;;;0.82;;
59145;SDS011;44928;53.074;6.646;2022-07-10T09:21:52;4.75;;;0.85;;
59145;SDS011;44928;53.074;6.646;2022-07-10T09:24:19;4.95;;;0.85;;
59145;SDS011;44928;53.074;6.646;2022-07-10T09:29:25;5.75;;;1.08;;
59145;SDS011;44928;53.074;6.646;2022-07-10T09:31:55;4.90;;;1.00;;
59145;SDS011;44928;53.074;6.646;2022-07-10T09:34:35;4.93;;;1.20;;
59145;SDS011;44928;53.074;6.646;2022-07-10T09:39:51;5.30;;;0.90;;
59145;SDS011;44928;53.074;6.646;2022-07-10T09:42:26;7.57;;;1.15;;
59145;SDS011;44928;53.074;6.646;2022-07-10T09:45:19;7.57;;;1.20;;
59145;SDS011;44928;53.074;6.646;2022-07-10T09:47:45;5.47;;;1.15;;
59145;SDS011;44928;53.074;6.646;2022-07-10T09:50:27;4.47;;;1.00;;
59145;SDS011;44928;53.074;6.646;2022-07-10T09:53:02;5.15;;;1.10;;
59145;SDS011;44928;53.074;6.646;2022-07-10T09:55:32;4.65;;;1.20;;
59145;SDS011;44928;53.074;6.646;2022-07-10T09:58:00;4.57;;;1.20;;
59145;SDS011;44928;53.074;6.646;2022-07-10T10:00:34;5.63;;;1.33;;
59145;SDS011;44928;53.074;6.646;2022-07-10T10:03:02;4.22;;;1.15;;
59145;SDS011;44928;53.074;6.646;2022-07-10T10:08:01;2.47;;;0.90;;
59145;SDS011;44928;53.074;6.646;2022-07-10T10:10:34;7.03;;;1.45;;
59145;SDS011;44928;53.074;6.646;2022-07-10T10:13:03;5.72;;;1.42;;
59145;SDS011;44928;53.074;6.646;2022-07-10T10:15:31;5.30;;;1.13;;
59145;SDS011;44928;53.074;6.646;2022-07-10T10:17:58;3.30;;;1.20;;
59145;SDS011;44928;53.074;6.646;2022-07-10T10:20:24;5.22;;;1.38;;
59145;SDS011;44928;53.074;6.646;2022-07-10T10:23:21;4.20;;;1.27;;
59145;SDS011;44928;53.074;6.646;2022-07-10T10:25:49;7.50;;;1.40;;
59145;SDS011;44928;53.074;6.646;2022-07-10T10:28:16;6.93;;;1.90;;
59145;SDS011;44928;53.074;6.646;2022-07-10T10:30:46;4.57;;;1.48;;
59145;SDS011;44928;53.074;6.646;2022-07-10T10:35:56;4.15;;;1.15;;
59145;SDS011;44928;53.074;6.646;2022-07-10T10:38:22;4.82;;;1.17;;
59145;SDS011;44928;53.074;6.646;2022-07-10T10:40:48;5.22;;;1.40;;
59145;SDS011;44928;53.074;6.646;2022-07-10T10:43:15;5.32;;;1.10;;
59145;SDS011;44928;53.074;6.646;2022-07-10T10:45:42;6.22;;;1.60;;
59145;SDS011;44928;53.074;6.646;2022-07-10T10:48:10;7.65;;;1.88;;
59145;SDS011;44928;53.074;6.646;2022-07-10T10:50:47;6.75;;;1.60;;
59145;SDS011;44928;53.074;6.646;2022-07-10T10:53:15;4.63;;;1.58;;
59145;SDS011;44928;53.074;6.646;2022-07-10T10:58:26;6.80;;;1.55;;
59145;SDS011;44928;53.074;6.646;2022-07-10T11:01:03;6.80;;;1.75;;
59145;SDS011;44928;53.074;6.646;2022-07-10T11:06:40;9.65;;;2.38;;
59145;SDS011;44928;53.074;6.646;2022-07-10T11:09:26;6.05;;;2.22;;
59145;SDS011;44928;53.074;6.646;2022-07-10T11:12:06;6.88;;;1.90;;
59145;SDS011;44928;53.074;6.646;2022-07-10T11:14:37;7.55;;;1.75;;
59145;SDS011;44928;53.074;6.646;2022-07-10T11:17:09;4.90;;;1.65;;
59145;SDS011;44928;53.074;6.646;2022-07-10T11:19:35;8.95;;;1.77;;
59145;SDS011;44928;53.074;6.646;2022-07-10T11:30:10;8.48;;;1.77;;
59145;SDS011;44928;53.074;6.646;2022-07-10T11:32:37;5.90;;;1.60;;
59145;SDS011;44928;53.074;6.646;2022-07-10T11:35:05;7.18;;;1.58;;
59145;SDS011;44928;53.074;6.646;2022-07-10T11:37:33;7.90;;;1.73;;
59145;SDS011;44928;53.074;6.646;2022-07-10T11:40:11;8.30;;;1.67;;
59145;SDS011;44928;53.074;6.646;2022-07-10T11:45:38;6.70;;;1.73;;
59145;SDS011;44928;53.074;6.646;2022-07-10T11:48:05;3.85;;;1.20;;
59145;SDS011;44928;53.074;6.646;2022-07-10T11:50:34;5.07;;;1.30;;
59145;SDS011;44928;53.074;6.646;2022-07-10T11:53:01;5.80;;;1.40;;
59145;SDS011;44928;53.074;6.646;2022-07-10T11:55:28;6.13;;;1.48;;
59145;SDS011;44928;53.074;6.646;2022-07-10T11:57:55;9.45;;;1.92;;
59145;SDS011;44928;53.074;6.646;2022-07-10T12:00:24;6.65;;;1.52;;
59145;SDS011;44928;53.074;6.646;2022-07-10T12:05:32;5.78;;;1.45;;
59145;SDS011;44928;53.074;6.646;2022-07-10T12:08:00;5.20;;;1.30;;
59145;SDS011;44928;53.074;6.646;2022-07-10T12:10:27;8.30;;;1.70;;
59145;SDS011;44928;53.074;6.646;2022-07-10T12:13:02;4.78;;;1.33;;
59145;SDS011;44928;53.074;6.646;2022-07-10T12:15:32;4.90;;;1.42;;
59145;SDS011;44928;53.074;6.646;2022-07-10T12:18:07;3.80;;;1.40;;
59145;SDS011;44928;53.074;6.646;2022-07-10T12:20:34;6.40;;;1.63;;
59145;SDS011;44928;53.074;6.646;2022-07-10T12:23:02;5.75;;;1.80;;
59145;SDS011;44928;53.074;6.646;2022-07-10T12:25:29;10.55;;;2.10;;
59145;SDS011;44928;53.074;6.646;2022-07-10T12:27:56;4.97;;;1.45;;
59145;SDS011;44928;53.074;6.646;2022-07-10T12:30:23;6.93;;;1.73;;
59145;SDS011;44928;53.074;6.646;2022-07-10T12:33:06;8.50;;;2.40;;
59145;SDS011;44928;53.074;6.646;2022-07-10T12:35:44;7.20;;;1.52;;
59145;SDS011;44928;53.074;6.646;2022-07-10T12:38:17;7.15;;;2.10;;
59145;SDS011;44928;53.074;6.646;2022-07-10T12:40:44;6.13;;;1.60;;
59145;SDS011;44928;53.074;6.646;2022-07-10T12:43:10;8.13;;;1.80;;
59145;SDS011;44928;53.074;6.646;2022-07-10T12:45:36;6.53;;;1.98;;
59145;SDS011;44928;53.074;6.646;2022-07-10T12:48:03;10.20;;;2.05;;
59145;SDS011;44928;53.074;6.646;2022-07-10T12:50:31;7.75;;;2.22;;
59145;SDS011;44928;53.074;6.646;2022-07-10T12:53:07;7.68;;;2.10;;
59145;SDS011;44928;53.074;6.646;2022-07-10T12:55:37;6.15;;;1.90;;
59145;SDS011;44928;53.074;6.646;2022-07-10T12:58:04;8.60;;;1.98;;
59145;SDS011;44928;53.074;6.646;2022-07-10T13:00:34;8.70;;;2.15;;
59145;SDS011;44928;53.074;6.646;2022-07-10T13:03:02;8.45;;;2.30;;
59145;SDS011;44928;53.074;6.646;2022-07-10T13:05:38;8.68;;;1.98;;
59145;SDS011;44928;53.074;6.646;2022-07-10T13:08:14;5.70;;;1.90;;
59145;SDS011;44928;53.074;6.646;2022-07-10T13:10:45;7.65;;;1.65;;
59145;SDS011;44928;53.074;6.646;2022-07-10T13:13:15;7.70;;;2.03;;
59145;SDS011;44928;53.074;6.646;2022-07-10T13:15:41;8.77;;;1.70;;
59145;SDS011;44928;53.074;6.646;2022-07-10T13:20:52;9.07;;;1.90;;
59145;SDS011;44928;53.074;6.646;2022-07-10T13:23:19;7.45;;;1.90;;
59145;SDS011;44928;53.074;6.646;2022-07-10T13:25:53;6.70;;;1.80;;
59145;SDS011;44928;53.074;6.646;2022-07-10T13:28:19;5.93;;;1.73;;
59145;SDS011;44928;53.074;6.646;2022-07-10T13:30:45;5.88;;;1.60;;
59145;SDS011;44928;53.074;6.646;2022-07-10T13:33:11;6.95;;;2.00;;
59145;SDS011;44928;53.074;6.646;2022-07-10T13:35:37;4.35;;;1.70;;
59145;SDS011;44928;53.074;6.646;2022-07-10T13:38:03;6.78;;;1.70;;
59145;SDS011;44928;53.074;6.646;2022-07-10T13:40:31;5.38;;;1.73;;
59145;SDS011;44928;53.074;6.646;2022-07-10T13:42:58;7.10;;;2.00;;
59145;SDS011;44928;53.074;6.646;2022-07-10T13:45:24;6.25;;;1.67;;
59145;SDS011;44928;53.074;6.646;2022-07-10T13:47:55;6.43;;;2.05;;
59145;SDS011;44928;53.074;6.646;2022-07-10T13:50:21;6.93;;;1.73;;
59145;SDS011;44928;53.074;6.646;2022-07-10T13:52:48;7.68;;;1.48;;
59145;SDS011;44928;53.074;6.646;2022-07-10T13:55:13;7.25;;;1.77;;
59145;SDS011;44928;53.074;6.646;2022-07-10T13:57:39;5.22;;;1.60;;
59145;SDS011;44928;53.074;6.646;2022-07-10T14:00:06;8.88;;;1.70;;
59145;SDS011;44928;53.074;6.646;2022-07-10T14:02:32;6.40;;;1.50;;
59145;SDS011;44928;53.074;6.646;2022-07-10T14:04:58;6.53;;;1.88;;
59145;SDS011;44928;53.074;6.646;2022-07-10T14:07:24;6.03;;;1.73;;
59145;SDS011;44928;53.074;6.646;2022-07-10T14:09:49;8.10;;;1.60;;
59145;SDS011;44928;53.074;6.646;2022-07-10T14:12:15;7.32;;;2.08;;
59145;SDS011;44928;53.074;6.646;2022-07-10T14:14:41;5.47;;;1.75;;
59145;SDS011;44928;53.074;6.646;2022-07-10T14:17:07;6.47;;;1.95;;
59145;SDS011;44928;53.074;6.646;2022-07-10T14:19:33;5.95;;;1.60;;
59145;SDS011;44928;53.074;6.646;2022-07-10T14:21:58;7.03;;;2.15;;
59145;SDS011;44928;53.074;6.646;2022-07-10T14:24:24;8.38;;;2.38;;
59145;SDS011;44928;53.074;6.646;2022-07-10T14:26:50;7.57;;;2.10;;
59145;SDS011;44928;53.074;6.646;2022-07-10T14:29:18;10.15;;;2.50;;
59145;SDS011;44928;53.074;6.646;2022-07-10T14:31:44;9.20;;;2.42;;
59145;SDS011;44928;53.074;6.646;2022-07-10T14:34:14;7.53;;;2.40;;
59145;SDS011;44928;53.074;6.646;2022-07-10T14:36:49;14.50;;;2.90;;
59145;SDS011;44928;53.074;6.646;2022-07-10T14:39:17;8.88;;;2.30;;
59145;SDS011;44928;53.074;6.646;2022-07-10T14:41:43;8.60;;;2.33;;
59145;SDS011;44928;53.074;6.646;2022-07-10T14:44:09;8.55;;;2.20;;
59145;SDS011;44928;53.074;6.646;2022-07-10T14:46:34;8.75;;;2.42;;
59145;SDS011;44928;53.074;6.646;2022-07-10T14:49:00;9.88;;;2.50;;
59145;SDS011;44928;53.074;6.646;2022-07-10T14:51:26;7.05;;;2.28;;
59145;SDS011;44928;53.074;6.646;2022-07-10T14:53:52;9.27;;;3.20;;
59145;SDS011;44928;53.074;6.646;2022-07-10T14:56:19;7.45;;;2.42;;
59145;SDS011;44928;53.074;6.646;2022-07-10T14:58:45;8.63;;;2.45;;
59145;SDS011;44928;53.074;6.646;2022-07-10T15:01:11;7.95;;;2.45;;
59145;SDS011;44928;53.074;6.646;2022-07-10T15:03:37;8.75;;;2.60;;
59145;SDS011;44928;53.074;6.646;2022-07-10T15:06:03;8.07;;;2.20;;
59145;SDS011;44928;53.074;6.646;2022-07-10T15:08:29;7.95;;;2.50;;
59145;SDS011;44928;53.074;6.646;2022-07-10T15:10:56;7.45;;;2.20;;
59145;SDS011;44928;53.074;6.646;2022-07-10T15:13:24;8.02;;;2.17;;
59145;SDS011;44928;53.074;6.646;2022-07-10T15:15:50;10.70;;;2.70;;
59145;SDS011;44928;53.074;6.646;2022-07-10T15:18:17;7.45;;;2.08;;
59145;SDS011;44928;53.074;6.646;2022-07-10T15:20:43;9.98;;;2.47;;
59145;SDS011;44928;53.074;6.646;2022-07-10T15:23:09;7.88;;;2.30;;